Accueil
METAR-TAF:

METAR-TAF

Aéroports :

Aéroport international de Chuuk

Weno, Micronésie

latitude: 07-28N, longitude: 151-51E, altitude: 3 m

Observation

Le bulletin a été fait il y a 58 minutes, à 18:50 UTC
Vent 3 kt de direction variable
Température 28°C
Humidité 89%
Pression 1008 hPa
Visibilité: 24.1 km
Quelques nuages à une hauteur de 1400 ft
Nuages épars à une hauteur de 12000 ft
Ciel couvert à une hauteur de 28000 ft

METAR: PTKK 201850Z VRB03KT 15SM FEW014 SCT120 OVC280 28/26 A2976 RMK SLP079 T02810264

Heure: 05:48 (19:48 UTC)

Prévision

Le bulletin a été fait il y a 2 heures et 28 minutes, à 17:20 UTC
Prévision valable du 20 à 18 UTC au 21 à 18 UTC
Vent 7 kt de nord-est
Visibilité: 10 km
Nuages épars à une hauteur de 1400 ft
Nuages épars à une hauteur de 12000 ft
averses à proximité

TAF: PTKK 201720Z 2018/2118 05007KT P6SM VCSH SCT014 SCT120

Observations et prévisions météorologiques de plus de 4000 aéroports (messages METAR et TAF).

Les stations disponibles sont représentées par des disques jaunes et rouges sur la carte.

Passer la souris dessus pour voir le nom de la station.

Cliquer dessus pour voir les observations et prévisions météorologiques.

Pour changer de carte: cliquez sur les boutons verts avec une croix noire pour zoomer, sur le bouton vert avec un tiret pour effectuer un zoom arrière, ou sur les flèches vertes pour les cartes adjacentes.


METAR-TAF: